sensor_id;sensor_type;location;lat;lon;timestamp;pressure;altitude;pressure_sealevel;temperature;humidity
69848;BME280;57143;55.940;37.496;2023-07-29T00:00:58;97806.69;;;15.50;100.00
69848;BME280;57143;55.940;37.496;2023-07-29T00:03:27;97795.06;;;15.44;100.00
69848;BME280;57143;55.940;37.496;2023-07-29T00:05:55;97802.34;;;15.49;100.00
69848;BME280;57143;55.940;37.496;2023-07-29T00:08:23;97815.09;;;15.53;100.00
69848;BME280;57143;55.940;37.496;2023-07-29T00:10:50;97821.09;;;15.55;100.00
69848;BME280;57143;55.940;37.496;2023-07-29T00:13:17;97769.09;;;15.23;100.00
69848;BME280;57143;55.940;37.496;2023-07-29T00:15:45;97827.28;;;15.42;100.00
69848;BME280;57143;55.940;37.496;2023-07-29T00:18:13;97821.97;;;15.51;100.00
69848;BME280;57143;55.940;37.496;2023-07-29T00:20:40;97798.88;;;15.43;100.00
69848;BME280;57143;55.940;37.496;2023-07-29T00:23:08;97796.06;;;15.48;100.00
69848;BME280;57143;55.940;37.496;2023-07-29T00:25:35;97794.88;;;15.36;100.00
69848;BME280;57143;55.940;37.496;2023-07-29T00:28:02;97792.94;;;15.36;100.00
69848;BME280;57143;55.940;37.496;2023-07-29T00:30:30;97790.97;;;15.42;100.00
69848;BME280;57143;55.940;37.496;2023-07-29T00:32:57;97800.56;;;15.39;100.00
69848;BME280;57143;55.940;37.496;2023-07-29T00:35:26;97818.81;;;15.44;100.00
69848;BME280;57143;55.940;37.496;2023-07-29T00:37:53;97818.31;;;15.37;100.00
69848;BME280;57143;55.940;37.496;2023-07-29T00:40:22;97797.50;;;15.22;100.00
69848;BME280;57143;55.940;37.496;2023-07-29T00:42:49;97781.78;;;15.14;100.00
69848;BME280;57143;55.940;37.496;2023-07-29T00:45:17;97810.66;;;15.39;100.00
69848;BME280;57143;55.940;37.496;2023-07-29T00:47:45;97812.88;;;15.37;100.00
69848;BME280;57143;55.940;37.496;2023-07-29T00:50:13;97773.38;;;15.11;100.00
69848;BME280;57143;55.940;37.496;2023-07-29T00:52:43;97804.88;;;15.22;100.00
69848;BME280;57143;55.940;37.496;2023-07-29T00:55:10;97794.19;;;15.25;100.00
69848;BME280;57143;55.940;37.496;2023-07-29T00:57:38;97819.06;;;15.24;100.00
69848;BME280;57143;55.940;37.496;2023-07-29T01:00:07;97802.91;;;15.27;100.00
69848;BME280;57143;55.940;37.496;2023-07-29T01:02:35;97813.47;;;15.34;100.00
69848;BME280;57143;55.940;37.496;2023-07-29T01:05:02;97812.34;;;15.35;100.00
69848;BME280;57143;55.940;37.496;2023-07-29T01:07:35;97782.53;;;15.20;100.00
69848;BME280;57143;55.940;37.496;2023-07-29T01:10:20;97795.72;;;15.31;100.00
69848;BME280;57143;55.940;37.496;2023-07-29T01:12:56;97796.56;;;15.32;100.00
69848;BME280;57143;55.940;37.496;2023-07-29T01:15:32;97805.19;;;15.39;100.00
69848;BME280;57143;55.940;37.496;2023-07-29T01:18:04;97775.44;;;15.19;100.00
69848;BME280;57143;55.940;37.496;2023-07-29T01:20:33;97803.56;;;15.38;100.00
69848;BME280;57143;55.940;37.496;2023-07-29T01:23:02;97795.44;;;15.33;100.00
69848;BME280;57143;55.940;37.496;2023-07-29T01:25:31;97791.91;;;15.32;100.00
69848;BME280;57143;55.940;37.496;2023-07-29T01:27:58;97789.97;;;15.33;100.00
69848;BME280;57143;55.940;37.496;2023-07-29T01:30:30;97759.25;;;15.27;100.00
69848;BME280;57143;55.940;37.496;2023-07-29T01:33:02;97747.94;;;15.15;100.00
69848;BME280;57143;55.940;37.496;2023-07-29T01:35:33;97780.56;;;15.25;100.00
69848;BME280;57143;55.940;37.496;2023-07-29T01:38:05;97789.75;;;15.29;100.00
69848;BME280;57143;55.940;37.496;2023-07-29T01:40:34;97784.28;;;15.29;100.00
69848;BME280;57143;55.940;37.496;2023-07-29T01:43:01;97759.13;;;15.14;100.00
69848;BME280;57143;55.940;37.496;2023-07-29T01:45:29;97775.09;;;15.25;100.00
69848;BME280;57143;55.940;37.496;2023-07-29T01:48:01;97762.84;;;15.23;100.00
69848;BME280;57143;55.940;37.496;2023-07-29T01:50:28;97755.25;;;15.20;100.00
69848;BME280;57143;55.940;37.496;2023-07-29T01:52:55;97763.28;;;15.11;100.00
69848;BME280;57143;55.940;37.496;2023-07-29T01:55:22;97760.31;;;15.07;100.00
69848;BME280;57143;55.940;37.496;2023-07-29T01:57:51;97720.16;;;14.89;100.00
69848;BME280;57143;55.940;37.496;2023-07-29T02:00:19;97717.44;;;14.89;100.00
69848;BME280;57143;55.940;37.496;2023-07-29T02:02:46;97728.72;;;15.01;100.00
69848;BME280;57143;55.940;37.496;2023-07-29T02:05:14;97735.59;;;14.99;100.00
69848;BME280;57143;55.940;37.496;2023-07-29T02:07:41;97733.63;;;15.04;100.00
69848;BME280;57143;55.940;37.496;2023-07-29T02:10:08;97741.00;;;15.04;100.00
69848;BME280;57143;55.940;37.496;2023-07-29T02:12:36;97744.25;;;15.06;100.00
69848;BME280;57143;55.940;37.496;2023-07-29T02:15:06;97751.09;;;15.03;100.00
69848;BME280;57143;55.940;37.496;2023-07-29T02:17:34;97750.22;;;15.08;100.00
69848;BME280;57143;55.940;37.496;2023-07-29T02:20:06;97730.38;;;15.02;100.00
69848;BME280;57143;55.940;37.496;2023-07-29T02:22:34;97738.50;;;15.07;100.00
69848;BME280;57143;55.940;37.496;2023-07-29T02:25:01;97737.75;;;15.02;100.00
69848;BME280;57143;55.940;37.496;2023-07-29T02:27:30;97731.75;;;15.00;100.00
69848;BME280;57143;55.940;37.496;2023-07-29T02:29:58;97745.03;;;15.06;100.00
69848;BME280;57143;55.940;37.496;2023-07-29T02:32:26;97742.06;;;15.03;100.00
69848;BME280;57143;55.940;37.496;2023-07-29T02:34:53;97746.22;;;15.00;100.00
69848;BME280;57143;55.940;37.496;2023-07-29T02:37:21;97755.56;;;14.94;100.00
69848;BME280;57143;55.940;37.496;2023-07-29T02:39:51;97754.63;;;15.04;100.00
69848;BME280;57143;55.940;37.496;2023-07-29T02:42:18;97752.66;;;15.10;100.00
69848;BME280;57143;55.940;37.496;2023-07-29T02:44:46;97742.31;;;15.06;100.00
69848;BME280;57143;55.940;37.496;2023-07-29T02:47:13;97724.75;;;14.94;100.00
69848;BME280;57143;55.940;37.496;2023-07-29T02:49:41;97744.75;;;15.08;100.00
69848;BME280;57143;55.940;37.496;2023-07-29T02:52:09;97740.09;;;15.08;100.00
69848;BME280;57143;55.940;37.496;2023-07-29T02:54:36;97733.56;;;15.10;100.00
69848;BME280;57143;55.940;37.496;2023-07-29T02:57:03;97719.88;;;14.91;100.00
69848;BME280;57143;55.940;37.496;2023-07-29T02:59:31;97740.84;;;15.14;100.00
69848;BME280;57143;55.940;37.496;2023-07-29T03:01:58;97718.50;;;15.12;100.00
69848;BME280;57143;55.940;37.496;2023-07-29T03:04:25;97720.84;;;15.19;100.00
69848;BME280;57143;55.940;37.496;2023-07-29T03:06:54;97713.25;;;15.16;100.00
69848;BME280;57143;55.940;37.496;2023-07-29T03:09:21;97719.97;;;15.23;100.00
69848;BME280;57143;55.940;37.496;2023-07-29T03:11:48;97719.69;;;15.25;100.00
69848;BME280;57143;55.940;37.496;2023-07-29T03:14:16;97716.34;;;15.28;100.00
69848;BME280;57143;55.940;37.496;2023-07-29T03:16:43;97701.97;;;15.22;100.00
69848;BME280;57143;55.940;37.496;2023-07-29T03:19:11;97715.38;;;15.19;100.00
69848;BME280;57143;55.940;37.496;2023-07-29T03:21:38;97704.56;;;15.32;100.00
69848;BME280;57143;55.940;37.496;2023-07-29T03:24:07;97710.50;;;15.34;100.00
69848;BME280;57143;55.940;37.496;2023-07-29T03:26:34;97714.88;;;15.35;100.00
69848;BME280;57143;55.940;37.496;2023-07-29T03:29:02;97716.56;;;15.31;100.00
69848;BME280;57143;55.940;37.496;2023-07-29T03:31:29;97708.09;;;15.33;100.00
69848;BME280;57143;55.940;37.496;2023-07-29T03:33:56;97714.97;;;15.30;100.00
69848;BME280;57143;55.940;37.496;2023-07-29T03:36:24;97710.81;;;15.33;100.00
69848;BME280;57143;55.940;37.496;2023-07-29T03:38:51;97679.03;;;15.23;100.00
69848;BME280;57143;55.940;37.496;2023-07-29T03:41:20;97664.81;;;15.07;100.00
69848;BME280;57143;55.940;37.496;2023-07-29T03:43:47;97698.88;;;15.29;100.00
69848;BME280;57143;55.940;37.496;2023-07-29T03:46:14;97690.91;;;15.32;100.00
69848;BME280;57143;55.940;37.496;2023-07-29T03:48:45;97694.22;;;15.29;100.00
69848;BME280;57143;55.940;37.496;2023-07-29T03:51:12;97660.31;;;15.17;100.00
69848;BME280;57143;55.940;37.496;2023-07-29T03:53:40;97684.63;;;15.32;100.00
69848;BME280;57143;55.940;37.496;2023-07-29T03:56:07;97687.38;;;15.32;100.00
69848;BME280;57143;55.940;37.496;2023-07-29T03:58:36;97688.97;;;15.33;100.00
69848;BME280;57143;55.940;37.496;2023-07-29T04:01:03;97677.84;;;15.29;100.00
69848;BME280;57143;55.940;37.496;2023-07-29T04:03:32;97663.97;;;15.26;100.00
69848;BME280;57143;55.940;37.496;2023-07-29T04:06:00;97671.50;;;15.34;100.00
69848;BME280;57143;55.940;37.496;2023-07-29T04:08:27;97658.66;;;15.34;100.00
69848;BME280;57143;55.940;37.496;2023-07-29T04:10:55;97647.38;;;15.22;100.00
69848;BME280;57143;55.940;37.496;2023-07-29T04:13:22;97657.88;;;15.34;100.00
69848;BME280;57143;55.940;37.496;2023-07-29T04:15:51;97662.38;;;15.43;100.00
69848;BME280;57143;55.940;37.496;2023-07-29T04:18:18;97658.09;;;15.37;100.00
69848;BME280;57143;55.940;37.496;2023-07-29T04:20:45;97661.47;;;15.29;100.00
69848;BME280;57143;55.940;37.496;2023-07-29T04:23:12;97665.22;;;15.33;100.00
69848;BME280;57143;55.940;37.496;2023-07-29T04:25:40;97672.03;;;15.36;100.00
69848;BME280;57143;55.940;37.496;2023-07-29T04:28:07;97663.09;;;15.30;100.00
69848;BME280;57143;55.940;37.496;2023-07-29T04:30:34;97642.22;;;15.21;100.00
69848;BME280;57143;55.940;37.496;2023-07-29T04:33:03;97657.56;;;15.35;100.00
69848;BME280;57143;55.940;37.496;2023-07-29T04:35:30;97653.50;;;15.33;100.00
69848;BME280;57143;55.940;37.496;2023-07-29T04:37:57;97654.63;;;15.32;100.00
69848;BME280;57143;55.940;37.496;2023-07-29T04:40:25;97657.03;;;15.33;100.00
69848;BME280;57143;55.940;37.496;2023-07-29T04:42:52;97645.00;;;15.34;100.00
69848;BME280;57143;55.940;37.496;2023-07-29T04:45:19;97638.66;;;15.39;100.00
69848;BME280;57143;55.940;37.496;2023-07-29T04:47:46;97641.69;;;15.37;100.00
69848;BME280;57143;55.940;37.496;2023-07-29T04:50:15;97622.38;;;15.34;100.00
69848;BME280;57143;55.940;37.496;2023-07-29T04:52:42;97614.50;;;15.32;100.00
69848;BME280;57143;55.940;37.496;2023-07-29T04:55:10;97618.81;;;15.33;100.00
69848;BME280;57143;55.940;37.496;2023-07-29T04:57:37;97645.53;;;15.36;100.00
69848;BME280;57143;55.940;37.496;2023-07-29T05:00:05;97631.09;;;15.36;100.00
69848;BME280;57143;55.940;37.496;2023-07-29T05:02:33;97636.75;;;15.39;100.00
69848;BME280;57143;55.940;37.496;2023-07-29T05:05:00;97627.38;;;15.45;100.00
69848;BME280;57143;55.940;37.496;2023-07-29T05:07:31;97635.38;;;15.42;100.00
69848;BME280;57143;55.940;37.496;2023-07-29T05:09:59;97626.25;;;15.46;100.00
69848;BME280;57143;55.940;37.496;2023-07-29T05:12:26;97600.53;;;15.34;100.00
69848;BME280;57143;55.940;37.496;2023-07-29T05:14:55;97618.06;;;15.46;100.00
69848;BME280;57143;55.940;37.496;2023-07-29T05:17:22;97617.63;;;15.58;100.00
69848;BME280;57143;55.940;37.496;2023-07-29T05:19:49;97597.16;;;15.42;100.00
69848;BME280;57143;55.940;37.496;2023-07-29T05:22:16;97598.97;;;15.46;100.00
69848;BME280;57143;55.940;37.496;2023-07-29T05:24:45;97618.41;;;15.58;100.00
69848;BME280;57143;55.940;37.496;2023-07-29T05:27:12;97625.59;;;15.54;100.00
69848;BME280;57143;55.940;37.496;2023-07-29T05:29:40;97598.47;;;15.44;100.00
69848;BME280;57143;55.940;37.496;2023-07-29T05:32:07;97602.75;;;15.64;100.00
69848;BME280;57143;55.940;37.496;2023-07-29T05:34:34;97595.06;;;15.66;100.00
69848;BME280;57143;55.940;37.496;2023-07-29T05:37:02;97594.47;;;15.69;100.00
69848;BME280;57143;55.940;37.496;2023-07-29T05:39:29;97600.66;;;15.74;100.00
69848;BME280;57143;55.940;37.496;2023-07-29T05:41:59;97589.94;;;15.78;100.00
69848;BME280;57143;55.940;37.496;2023-07-29T05:44:28;97577.28;;;15.68;100.00
69848;BME280;57143;55.940;37.496;2023-07-29T05:46:56;97605.81;;;15.89;100.00
69848;BME280;57143;55.940;37.496;2023-07-29T05:49:23;97604.41;;;15.78;100.00
69848;BME280;57143;55.940;37.496;2023-07-29T05:51:50;97611.16;;;15.81;100.00
69848;BME280;57143;55.940;37.496;2023-07-29T05:54:19;97615.31;;;15.78;100.00
69848;BME280;57143;55.940;37.496;2023-07-29T05:56:46;97607.03;;;15.83;100.00
69848;BME280;57143;55.940;37.496;2023-07-29T05:59:14;97616.47;;;15.91;100.00
69848;BME280;57143;55.940;37.496;2023-07-29T06:01:42;97625.16;;;15.93;100.00
69848;BME280;57143;55.940;37.496;2023-07-29T06:04:09;97631.63;;;15.83;100.00
69848;BME280;57143;55.940;37.496;2023-07-29T06:06:36;97641.63;;;15.88;100.00
69848;BME280;57143;55.940;37.496;2023-07-29T06:09:04;97643.75;;;15.77;100.00
69848;BME280;57143;55.940;37.496;2023-07-29T06:11:31;97678.09;;;15.97;100.00
69848;BME280;57143;55.940;37.496;2023-07-29T06:13:58;97675.53;;;15.73;100.00
69848;BME280;57143;55.940;37.496;2023-07-29T06:16:27;97695.56;;;15.82;100.00
69848;BME280;57143;55.940;37.496;2023-07-29T06:18:54;97709.94;;;15.88;100.00
69848;BME280;57143;55.940;37.496;2023-07-29T06:21:21;97705.38;;;15.83;100.00
69848;BME280;57143;55.940;37.496;2023-07-29T06:23:49;97716.66;;;15.95;100.00
69848;BME280;57143;55.940;37.496;2023-07-29T06:26:16;97714.44;;;15.97;100.00
69848;BME280;57143;55.940;37.496;2023-07-29T06:28:43;97727.56;;;15.95;100.00
69848;BME280;57143;55.940;37.496;2023-07-29T06:31:10;97707.22;;;15.88;100.00
69848;BME280;57143;55.940;37.496;2023-07-29T06:33:39;97717.56;;;15.91;100.00
69848;BME280;57143;55.940;37.496;2023-07-29T06:36:06;97740.84;;;16.02;100.00
69848;BME280;57143;55.940;37.496;2023-07-29T06:38:33;97746.09;;;15.98;100.00
69848;BME280;57143;55.940;37.496;2023-07-29T06:41:01;97756.50;;;15.96;100.00
69848;BME280;57143;55.940;37.496;2023-07-29T06:43:28;97731.09;;;15.82;100.00
69848;BME280;57143;55.940;37.496;2023-07-29T06:45:55;97747.22;;;15.97;100.00
69848;BME280;57143;55.940;37.496;2023-07-29T06:48:23;97749.44;;;15.95;100.00
69848;BME280;57143;55.940;37.496;2023-07-29T06:50:51;97750.34;;;15.91;100.00
69848;BME280;57143;55.940;37.496;2023-07-29T06:53:21;97741.63;;;15.89;100.00
69848;BME280;57143;55.940;37.496;2023-07-29T06:55:48;97750.38;;;16.04;100.00
69848;BME280;57143;55.940;37.496;2023-07-29T06:58:15;97758.94;;;15.98;100.00
69848;BME280;57143;55.940;37.496;2023-07-29T07:00:42;97761.50;;;15.94;100.00
69848;BME280;57143;55.940;37.496;2023-07-29T07:03:10;97758.78;;;16.08;100.00
69848;BME280;57143;55.940;37.496;2023-07-29T07:05:37;97756.50;;;15.96;100.00
69848;BME280;57143;55.940;37.496;2023-07-29T07:08:06;97765.00;;;15.95;100.00
69848;BME280;57143;55.940;37.496;2023-07-29T07:10:33;97765.00;;;15.95;100.00
69848;BME280;57143;55.940;37.496;2023-07-29T07:13:00;97762.19;;;16.00;100.00
69848;BME280;57143;55.940;37.496;2023-07-29T07:15:28;97764.28;;;15.89;100.00
69848;BME280;57143;55.940;37.496;2023-07-29T07:17:55;97772.69;;;15.93;100.00
69848;BME280;57143;55.940;37.496;2023-07-29T07:20:22;97751.31;;;15.81;100.00
69848;BME280;57143;55.940;37.496;2023-07-29T07:22:49;97782.53;;;15.94;100.00
69848;BME280;57143;55.940;37.496;2023-07-29T07:25:18;97779.50;;;15.95;100.00
69848;BME280;57143;55.940;37.496;2023-07-29T07:27:46;97761.41;;;15.99;100.00
69848;BME280;57143;55.940;37.496;2023-07-29T07:30:14;97752.69;;;15.97;100.00
69848;BME280;57143;55.940;37.496;2023-07-29T07:32:41;97770.72;;;16.12;100.00
69848;BME280;57143;55.940;37.496;2023-07-29T07:35:09;97757.38;;;16.10;100.00
69848;BME280;57143;55.940;37.496;2023-07-29T07:37:36;97766.06;;;16.12;100.00
69848;BME280;57143;55.940;37.496;2023-07-29T07:40:03;97753.22;;;16.13;100.00
69848;BME280;57143;55.940;37.496;2023-07-29T07:42:33;97727.47;;;16.00;100.00
69848;BME280;57143;55.940;37.496;2023-07-29T07:45:00;97744.81;;;16.09;100.00
69848;BME280;57143;55.940;37.496;2023-07-29T07:47:29;97745.44;;;16.20;100.00
69848;BME280;57143;55.940;37.496;2023-07-29T07:49:57;97733.19;;;16.17;100.00
69848;BME280;57143;55.940;37.496;2023-07-29T07:52:24;97720.25;;;16.23;100.00
69848;BME280;57143;55.940;37.496;2023-07-29T07:54:52;97730.34;;;16.23;100.00
69848;BME280;57143;55.940;37.496;2023-07-29T07:57:20;97719.41;;;16.23;100.00
69848;BME280;57143;55.940;37.496;2023-07-29T07:59:49;97736.03;;;16.26;100.00
69848;BME280;57143;55.940;37.496;2023-07-29T08:02:18;97728.97;;;16.25;100.00
69848;BME280;57143;55.940;37.496;2023-07-29T08:04:46;97732.78;;;16.38;100.00
69848;BME280;57143;55.940;37.496;2023-07-29T08:07:13;97729.06;;;16.34;100.00
69848;BME280;57143;55.940;37.496;2023-07-29T08:09:41;97745.88;;;16.41;100.00
69848;BME280;57143;55.940;37.496;2023-07-29T08:12:08;97715.06;;;16.22;100.00
69848;BME280;57143;55.940;37.496;2023-07-29T08:14:35;97741.66;;;16.48;100.00
69848;BME280;57143;55.940;37.496;2023-07-29T08:17:04;97703.53;;;16.38;100.00
69848;BME280;57143;55.940;37.496;2023-07-29T08:19:32;97748.75;;;16.63;100.00
69848;BME280;57143;55.940;37.496;2023-07-29T08:22:02;97745.72;;;16.78;100.00
69848;BME280;57143;55.940;37.496;2023-07-29T08:24:29;97766.41;;;16.84;100.00
69848;BME280;57143;55.940;37.496;2023-07-29T08:26:57;97769.13;;;16.84;100.00
69848;BME280;57143;55.940;37.496;2023-07-29T08:29:24;97780.16;;;16.52;100.00
69848;BME280;57143;55.940;37.496;2023-07-29T08:31:51;97705.06;;;16.31;100.00
69848;BME280;57143;55.940;37.496;2023-07-29T08:34:20;97804.00;;;16.78;100.00
69848;BME280;57143;55.940;37.496;2023-07-29T08:36:47;97841.59;;;17.00;100.00
69848;BME280;57143;55.940;37.496;2023-07-29T08:39:15;97831.25;;;16.83;100.00
69848;BME280;57143;55.940;37.496;2023-07-29T08:41:52;97887.22;;;17.04;100.00
69848;BME280;57143;55.940;37.496;2023-07-29T08:44:22;97864.59;;;16.85;100.00
69848;BME280;57143;55.940;37.496;2023-07-29T08:46:50;97904.06;;;16.98;100.00
69848;BME280;57143;55.940;37.496;2023-07-29T08:49:20;97914.59;;;17.04;100.00
69848;BME280;57143;55.940;37.496;2023-07-29T08:51:49;97932.22;;;16.98;100.00
69848;BME280;57143;55.940;37.496;2023-07-29T08:54:17;97921.97;;;16.90;100.00
69848;BME280;57143;55.940;37.496;2023-07-29T08:56:45;97909.66;;;16.74;100.00
69848;BME280;57143;55.940;37.496;2023-07-29T08:59:13;97924.41;;;16.92;100.00
69848;BME280;57143;55.940;37.496;2023-07-29T09:01:42;97944.09;;;16.94;100.00
69848;BME280;57143;55.940;37.496;2023-07-29T09:04:09;97957.06;;;17.02;100.00
69848;BME280;57143;55.940;37.496;2023-07-29T09:06:39;97961.44;;;17.03;100.00
69848;BME280;57143;55.940;37.496;2023-07-29T09:09:08;97971.59;;;17.16;100.00
69848;BME280;57143;55.940;37.496;2023-07-29T09:11:35;97981.59;;;17.07;100.00
69848;BME280;57143;55.940;37.496;2023-07-29T09:14:03;97982.81;;;17.01;100.00
69848;BME280;57143;55.940;37.496;2023-07-29T09:16:30;97957.69;;;16.99;100.00
69848;BME280;57143;55.940;37.496;2023-07-29T09:19:01;97972.97;;;17.00;100.00
69848;BME280;57143;55.940;37.496;2023-07-29T09:21:29;97969.22;;;16.96;100.00
69848;BME280;57143;55.940;37.496;2023-07-29T09:24:03;97988.22;;;17.19;100.00
69848;BME280;57143;55.940;37.496;2023-07-29T09:26:30;97981.94;;;17.19;100.00
69848;BME280;57143;55.940;37.496;2023-07-29T09:28:59;97984.00;;;17.27;100.00
69848;BME280;57143;55.940;37.496;2023-07-29T09:31:28;97995.56;;;17.38;100.00
69848;BME280;57143;55.940;37.496;2023-07-29T09:33:57;98003.84;;;17.32;100.00
69848;BME280;57143;55.940;37.496;2023-07-29T09:36:25;98022.13;;;17.23;100.00
69848;BME280;57143;55.940;37.496;2023-07-29T09:38:53;98004.44;;;17.16;100.00
69848;BME280;57143;55.940;37.496;2023-07-29T09:41:23;98027.59;;;17.23;100.00
69848;BME280;57143;55.940;37.496;2023-07-29T09:43:56;98034.19;;;17.36;100.00
69848;BME280;57143;55.940;37.496;2023-07-29T09:46:25;98024.56;;;17.39;100.00
69848;BME280;57143;55.940;37.496;2023-07-29T09:48:53;98028.72;;;17.36;100.00
69848;BME280;57143;55.940;37.496;2023-07-29T09:51:22;98027.78;;;17.59;100.00
69848;BME280;57143;55.940;37.496;2023-07-29T09:53:50;98042.69;;;17.53;100.00
69848;BME280;57143;55.940;37.496;2023-07-29T09:56:18;98042.19;;;17.65;100.00
69848;BME280;57143;55.940;37.496;2023-07-29T09:58:53;98057.50;;;17.66;100.00
69848;BME280;57143;55.940;37.496;2023-07-29T10:01:22;98054.59;;;17.89;100.00
69848;BME280;57143;55.940;37.496;2023-07-29T10:03:50;98077.94;;;17.87;100.00
69848;BME280;57143;55.940;37.496;2023-07-29T10:06:18;98058.81;;;16.90;100.00
69848;BME280;57143;55.940;37.496;2023-07-29T10:08:47;98056.59;;;17.24;100.00
69848;BME280;57143;55.940;37.496;2023-07-29T10:11:16;98040.78;;;17.35;100.00
69848;BME280;57143;55.940;37.496;2023-07-29T10:13:46;98041.72;;;17.30;100.00
69848;BME280;57143;55.940;37.496;2023-07-29T10:16:14;98079.56;;;17.42;100.00
69848;BME280;57143;55.940;37.496;2023-07-29T10:18:42;98077.81;;;17.32;100.00
69848;BME280;57143;55.940;37.496;2023-07-29T10:21:12;98096.50;;;17.30;100.00
69848;BME280;57143;55.940;37.496;2023-07-29T10:23:43;98088.97;;;17.36;100.00
69848;BME280;57143;55.940;37.496;2023-07-29T10:26:13;98103.09;;;17.43;100.00
69848;BME280;57143;55.940;37.496;2023-07-29T10:28:47;98082.41;;;17.37;100.00
69848;BME280;57143;55.940;37.496;2023-07-29T10:31:17;98096.16;;;17.51;100.00
69848;BME280;57143;55.940;37.496;2023-07-29T10:33:45;98103.56;;;17.50;100.00
69848;BME280;57143;55.940;37.496;2023-07-29T10:36:13;98063.84;;;17.34;100.00
69848;BME280;57143;55.940;37.496;2023-07-29T10:38:41;98084.00;;;17.38;100.00
69848;BME280;57143;55.940;37.496;2023-07-29T10:41:08;98111.88;;;17.59;100.00
69848;BME280;57143;55.940;37.496;2023-07-29T10:43:36;98124.38;;;17.51;100.00
69848;BME280;57143;55.940;37.496;2023-07-29T10:46:19;98114.06;;;17.62;100.00
69848;BME280;57143;55.940;37.496;2023-07-29T10:48:54;98125.47;;;17.50;100.00
69848;BME280;57143;55.940;37.496;2023-07-29T10:51:23;98119.72;;;17.33;100.00
69848;BME280;57143;55.940;37.496;2023-07-29T10:53:52;98144.13;;;17.48;100.00
69848;BME280;57143;55.940;37.496;2023-07-29T10:56:26;98116.72;;;17.48;100.00
69848;BME280;57143;55.940;37.496;2023-07-29T10:58:55;98131.81;;;17.46;100.00
69848;BME280;57143;55.940;37.496;2023-07-29T11:01:28;98130.47;;;17.43;100.00
69848;BME280;57143;55.940;37.496;2023-07-29T11:04:24;98130.78;;;17.42;100.00
69848;BME280;57143;55.940;37.496;2023-07-29T11:07:23;98128.34;;;17.40;100.00
69848;BME280;57143;55.940;37.496;2023-07-29T11:09:54;98102.97;;;17.34;100.00
69848;BME280;57143;55.940;37.496;2023-07-29T11:12:39;98119.88;;;17.23;100.00
69848;BME280;57143;55.940;37.496;2023-07-29T11:15:19;98108.09;;;17.22;100.00
69848;BME280;57143;55.940;37.496;2023-07-29T11:17:50;98101.31;;;17.20;100.00
69848;BME280;57143;55.940;37.496;2023-07-29T11:20:19;98103.47;;;17.37;100.00
69848;BME280;57143;55.940;37.496;2023-07-29T11:22:46;98101.03;;;17.54;100.00
69848;BME280;57143;55.940;37.496;2023-07-29T11:25:14;98100.56;;;17.65;100.00
69848;BME280;57143;55.940;37.496;2023-07-29T11:27:42;98071.56;;;17.46;100.00
69848;BME280;57143;55.940;37.496;2023-07-29T11:30:12;98094.78;;;17.67;100.00
69848;BME280;57143;55.940;37.496;2023-07-29T11:32:41;98016.31;;;17.11;100.00
69848;BME280;57143;55.940;37.496;2023-07-29T11:35:11;98101.88;;;17.68;100.00
69848;BME280;57143;55.940;37.496;2023-07-29T11:37:43;98100.38;;;17.75;100.00
69848;BME280;57143;55.940;37.496;2023-07-29T11:40:15;98117.22;;;17.82;100.00
69848;BME280;57143;55.940;37.496;2023-07-29T11:42:43;98101.56;;;17.83;100.00
69848;BME280;57143;55.940;37.496;2023-07-29T11:45:13;98105.75;;;17.80;100.00
69848;BME280;57143;55.940;37.496;2023-07-29T11:47:41;98126.25;;;17.83;100.00
69848;BME280;57143;55.940;37.496;2023-07-29T11:50:10;98126.44;;;17.86;100.00
69848;BME280;57143;55.940;37.496;2023-07-29T11:52:41;98132.78;;;18.00;100.00
69848;BME280;57143;55.940;37.496;2023-07-29T11:55:09;98126.66;;;17.90;100.00
69848;BME280;57143;55.940;37.496;2023-07-29T11:57:38;98135.72;;;18.04;100.00
69848;BME280;57143;55.940;37.496;2023-07-29T12:00:07;98133.91;;;17.99;100.00
69848;BME280;57143;55.940;37.496;2023-07-29T12:02:39;98134.56;;;17.91;100.00
69848;BME280;57143;55.940;37.496;2023-07-29T12:05:10;98158.56;;;17.86;100.00
69848;BME280;57143;55.940;37.496;2023-07-29T12:07:38;98151.75;;;17.97;100.00
69848;BME280;57143;55.940;37.496;2023-07-29T12:10:06;98162.72;;;18.10;100.00
69848;BME280;57143;55.940;37.496;2023-07-29T12:12:38;98151.28;;;18.08;100.00
69848;BME280;57143;55.940;37.496;2023-07-29T12:15:08;98162.47;;;18.12;100.00
69848;BME280;57143;55.940;37.496;2023-07-29T12:17:39;98179.41;;;18.14;100.00
69848;BME280;57143;55.940;37.496;2023-07-29T12:20:10;98187.09;;;17.98;100.00
69848;BME280;57143;55.940;37.496;2023-07-29T12:22:38;98198.56;;;18.00;100.00
69848;BME280;57143;55.940;37.496;2023-07-29T12:25:06;98225.38;;;18.03;100.00
69848;BME280;57143;55.940;37.496;2023-07-29T12:27:33;98224.44;;;17.81;100.00
69848;BME280;57143;55.940;37.496;2023-07-29T12:30:01;98236.44;;;17.98;100.00
69848;BME280;57143;55.940;37.496;2023-07-29T12:32:32;98228.69;;;17.87;100.00
69848;BME280;57143;55.940;37.496;2023-07-29T12:35:00;98238.09;;;17.99;100.00
69848;BME280;57143;55.940;37.496;2023-07-29T12:37:32;98248.75;;;18.01;100.00
69848;BME280;57143;55.940;37.496;2023-07-29T12:40:00;98247.63;;;18.02;100.00
69848;BME280;57143;55.940;37.496;2023-07-29T12:42:29;98232.81;;;18.03;100.00
69848;BME280;57143;55.940;37.496;2023-07-29T12:44:56;98236.78;;;18.10;100.00
69848;BME280;57143;55.940;37.496;2023-07-29T12:47:23;98231.81;;;18.12;100.00